sensor_id;sensor_type;location;lat;lon;timestamp;P1;durP1;ratioP1;P2;durP2;ratioP2
15905;SDS011;8051;50.820;4.884;2022-11-15T00:00:04;29.13;;;26.23;;
15905;SDS011;8051;50.820;4.884;2022-11-15T00:02:32;31.83;;;27.67;;
15905;SDS011;8051;50.820;4.884;2022-11-15T00:05:00;28.20;;;25.33;;
15905;SDS011;8051;50.820;4.884;2022-11-15T00:07:27;27.63;;;24.30;;
15905;SDS011;8051;50.820;4.884;2022-11-15T00:09:55;26.70;;;23.83;;
15905;SDS011;8051;50.820;4.884;2022-11-15T00:12:22;26.77;;;23.97;;
15905;SDS011;8051;50.820;4.884;2022-11-15T00:14:51;32.47;;;24.60;;
15905;SDS011;8051;50.820;4.884;2022-11-15T00:17:18;32.37;;;25.10;;
15905;SDS011;8051;50.820;4.884;2022-11-15T00:19:46;30.47;;;24.90;;
15905;SDS011;8051;50.820;4.884;2022-11-15T00:22:14;32.53;;;26.23;;
15905;SDS011;8051;50.820;4.884;2022-11-15T00:24:41;28.80;;;25.90;;
15905;SDS011;8051;50.820;4.884;2022-11-15T00:27:09;31.90;;;25.73;;
15905;SDS011;8051;50.820;4.884;2022-11-15T00:29:36;32.43;;;27.23;;
15905;SDS011;8051;50.820;4.884;2022-11-15T00:32:09;33.50;;;27.17;;
15905;SDS011;8051;50.820;4.884;2022-11-15T00:34:37;29.77;;;26.20;;
15905;SDS011;8051;50.820;4.884;2022-11-15T00:37:05;30.70;;;27.50;;
15905;SDS011;8051;50.820;4.884;2022-11-15T00:39:33;28.13;;;23.50;;
15905;SDS011;8051;50.820;4.884;2022-11-15T00:42:00;29.63;;;25.13;;
15905;SDS011;8051;50.820;4.884;2022-11-15T00:44:28;28.43;;;25.20;;
15905;SDS011;8051;50.820;4.884;2022-11-15T00:46:55;28.37;;;25.40;;
15905;SDS011;8051;50.820;4.884;2022-11-15T00:49:24;33.53;;;25.60;;
15905;SDS011;8051;50.820;4.884;2022-11-15T00:51:51;28.77;;;24.90;;
15905;SDS011;8051;50.820;4.884;2022-11-15T00:54:18;29.50;;;25.07;;
15905;SDS011;8051;50.820;4.884;2022-11-15T00:56:46;30.10;;;25.47;;
15905;SDS011;8051;50.820;4.884;2022-11-15T00:59:13;27.93;;;25.13;;
15905;SDS011;8051;50.820;4.884;2022-11-15T01:01:41;27.80;;;24.90;;
15905;SDS011;8051;50.820;4.884;2022-11-15T01:04:08;27.67;;;24.57;;
15905;SDS011;8051;50.820;4.884;2022-11-15T01:06:37;28.97;;;25.13;;
15905;SDS011;8051;50.820;4.884;2022-11-15T01:09:05;31.80;;;25.73;;
15905;SDS011;8051;50.820;4.884;2022-11-15T01:11:32;27.40;;;24.27;;
15905;SDS011;8051;50.820;4.884;2022-11-15T01:13:59;30.17;;;23.90;;
15905;SDS011;8051;50.820;4.884;2022-11-15T01:16:27;28.87;;;24.33;;
15905;SDS011;8051;50.820;4.884;2022-11-15T01:18:54;31.10;;;26.17;;
15905;SDS011;8051;50.820;4.884;2022-11-15T01:21:22;27.33;;;24.40;;
15905;SDS011;8051;50.820;4.884;2022-11-15T01:23:53;26.13;;;23.50;;
15905;SDS011;8051;50.820;4.884;2022-11-15T01:26:21;28.53;;;25.63;;
15905;SDS011;8051;50.820;4.884;2022-11-15T01:28:49;27.80;;;24.73;;
15905;SDS011;8051;50.820;4.884;2022-11-15T01:31:18;27.20;;;24.50;;
15905;SDS011;8051;50.820;4.884;2022-11-15T01:33:46;27.23;;;24.43;;
15905;SDS011;8051;50.820;4.884;2022-11-15T01:36:15;26.53;;;23.73;;
15905;SDS011;8051;50.820;4.884;2022-11-15T01:38:44;33.30;;;23.77;;
15905;SDS011;8051;50.820;4.884;2022-11-15T01:41:17;26.77;;;23.87;;
15905;SDS011;8051;50.820;4.884;2022-11-15T01:43:46;26.57;;;23.73;;
15905;SDS011;8051;50.820;4.884;2022-11-15T01:46:21;26.83;;;23.97;;
15905;SDS011;8051;50.820;4.884;2022-11-15T01:48:52;28.13;;;23.70;;
15905;SDS011;8051;50.820;4.884;2022-11-15T01:51:21;26.80;;;23.80;;
15905;SDS011;8051;50.820;4.884;2022-11-15T01:53:52;28.03;;;24.50;;
15905;SDS011;8051;50.820;4.884;2022-11-15T01:56:27;25.07;;;22.63;;
15905;SDS011;8051;50.820;4.884;2022-11-15T01:58:57;27.47;;;24.77;;
15905;SDS011;8051;50.820;4.884;2022-11-15T02:01:27;27.10;;;24.20;;
15905;SDS011;8051;50.820;4.884;2022-11-15T02:03:57;26.67;;;23.70;;
15905;SDS011;8051;50.820;4.884;2022-11-15T02:06:27;29.40;;;25.90;;
15905;SDS011;8051;50.820;4.884;2022-11-15T02:08:54;30.37;;;25.60;;
15905;SDS011;8051;50.820;4.884;2022-11-15T02:11:23;30.73;;;27.40;;
15905;SDS011;8051;50.820;4.884;2022-11-15T02:13:52;27.17;;;24.33;;
15905;SDS011;8051;50.820;4.884;2022-11-15T02:16:23;30.43;;;26.23;;
15905;SDS011;8051;50.820;4.884;2022-11-15T02:18:57;30.80;;;27.57;;
15905;SDS011;8051;50.820;4.884;2022-11-15T02:21:31;34.90;;;27.47;;
15905;SDS011;8051;50.820;4.884;2022-11-15T02:30:24;31.50;;;28.17;;
15905;SDS011;8051;50.820;4.884;2022-11-15T02:33:01;36.40;;;31.77;;
15905;SDS011;8051;50.820;4.884;2022-11-15T02:35:34;35.13;;;30.77;;
15905;SDS011;8051;50.820;4.884;2022-11-15T02:38:12;32.73;;;27.70;;
15905;SDS011;8051;50.820;4.884;2022-11-15T02:40:49;34.33;;;30.67;;
15905;SDS011;8051;50.820;4.884;2022-11-15T02:43:22;42.03;;;31.50;;
15905;SDS011;8051;50.820;4.884;2022-11-15T02:46:14;36.37;;;31.17;;
15905;SDS011;8051;50.820;4.884;2022-11-15T02:49:08;37.53;;;32.63;;
15905;SDS011;8051;50.820;4.884;2022-11-15T02:51:38;38.10;;;31.73;;
15905;SDS011;8051;50.820;4.884;2022-11-15T02:54:06;39.43;;;32.07;;
15905;SDS011;8051;50.820;4.884;2022-11-15T02:56:33;42.03;;;32.40;;
15905;SDS011;8051;50.820;4.884;2022-11-15T02:59:05;40.33;;;34.33;;
15905;SDS011;8051;50.820;4.884;2022-11-15T03:01:44;36.30;;;30.50;;
15905;SDS011;8051;50.820;4.884;2022-11-15T03:04:23;36.83;;;33.00;;
15905;SDS011;8051;50.820;4.884;2022-11-15T03:07:03;42.83;;;34.87;;
15905;SDS011;8051;50.820;4.884;2022-11-15T03:09:38;49.70;;;36.53;;
15905;SDS011;8051;50.820;4.884;2022-11-15T03:12:10;47.67;;;38.40;;
15905;SDS011;8051;50.820;4.884;2022-11-15T03:14:45;42.10;;;35.80;;
15905;SDS011;8051;50.820;4.884;2022-11-15T03:17:22;41.43;;;35.70;;
15905;SDS011;8051;50.820;4.884;2022-11-15T03:19:52;49.70;;;37.03;;
15905;SDS011;8051;50.820;4.884;2022-11-15T03:22:22;44.27;;;37.03;;
15905;SDS011;8051;50.820;4.884;2022-11-15T03:24:53;43.67;;;38.20;;
15905;SDS011;8051;50.820;4.884;2022-11-15T03:27:23;42.97;;;38.33;;
15905;SDS011;8051;50.820;4.884;2022-11-15T03:29:54;45.23;;;37.00;;
15905;SDS011;8051;50.820;4.884;2022-11-15T03:32:28;53.30;;;40.57;;
15905;SDS011;8051;50.820;4.884;2022-11-15T03:34:58;43.47;;;37.33;;
15905;SDS011;8051;50.820;4.884;2022-11-15T03:37:30;46.03;;;39.90;;
15905;SDS011;8051;50.820;4.884;2022-11-15T03:40:01;50.87;;;39.63;;
15905;SDS011;8051;50.820;4.884;2022-11-15T03:42:30;47.63;;;40.43;;
15905;SDS011;8051;50.820;4.884;2022-11-15T03:45:03;46.37;;;38.93;;
15905;SDS011;8051;50.820;4.884;2022-11-15T03:47:41;51.83;;;38.53;;
15905;SDS011;8051;50.820;4.884;2022-11-15T03:50:14;40.07;;;35.67;;
15905;SDS011;8051;50.820;4.884;2022-11-15T03:52:44;58.27;;;42.20;;
15905;SDS011;8051;50.820;4.884;2022-11-15T03:55:14;44.20;;;39.00;;
15905;SDS011;8051;50.820;4.884;2022-11-15T03:57:43;50.23;;;39.10;;
15905;SDS011;8051;50.820;4.884;2022-11-15T04:00:11;51.50;;;40.07;;
15905;SDS011;8051;50.820;4.884;2022-11-15T04:02:40;47.77;;;39.07;;
15905;SDS011;8051;50.820;4.884;2022-11-15T04:05:08;37.40;;;33.20;;
15905;SDS011;8051;50.820;4.884;2022-11-15T04:07:36;39.03;;;29.83;;
15905;SDS011;8051;50.820;4.884;2022-11-15T04:10:03;39.90;;;33.07;;
15905;SDS011;8051;50.820;4.884;2022-11-15T04:12:32;27.37;;;24.63;;
15905;SDS011;8051;50.820;4.884;2022-11-15T04:15:00;30.40;;;24.90;;
15905;SDS011;8051;50.820;4.884;2022-11-15T04:17:35;26.60;;;22.40;;
15905;SDS011;8051;50.820;4.884;2022-11-15T04:20:07;25.10;;;21.23;;
15905;SDS011;8051;50.820;4.884;2022-11-15T04:22:53;22.83;;;20.17;;
15905;SDS011;8051;50.820;4.884;2022-11-15T04:25:39;23.60;;;20.70;;
15905;SDS011;8051;50.820;4.884;2022-11-15T04:28:07;21.53;;;19.33;;
15905;SDS011;8051;50.820;4.884;2022-11-15T04:30:34;23.00;;;19.80;;
15905;SDS011;8051;50.820;4.884;2022-11-15T04:33:02;22.83;;;19.63;;
15905;SDS011;8051;50.820;4.884;2022-11-15T04:35:31;23.10;;;19.33;;
15905;SDS011;8051;50.820;4.884;2022-11-15T04:37:58;23.30;;;20.80;;
15905;SDS011;8051;50.820;4.884;2022-11-15T04:40:25;21.97;;;18.73;;
15905;SDS011;8051;50.820;4.884;2022-11-15T04:42:53;25.70;;;21.67;;
15905;SDS011;8051;50.820;4.884;2022-11-15T04:45:20;24.17;;;20.87;;
15905;SDS011;8051;50.820;4.884;2022-11-15T04:47:47;27.73;;;23.57;;
15905;SDS011;8051;50.820;4.884;2022-11-15T04:50:15;26.73;;;22.07;;
15905;SDS011;8051;50.820;4.884;2022-11-15T04:52:50;31.03;;;24.63;;
15905;SDS011;8051;50.820;4.884;2022-11-15T04:55:19;25.87;;;23.20;;
15905;SDS011;8051;50.820;4.884;2022-11-15T04:57:47;33.20;;;23.93;;
15905;SDS011;8051;50.820;4.884;2022-11-15T05:00:15;26.60;;;22.83;;
15905;SDS011;8051;50.820;4.884;2022-11-15T05:02:43;26.80;;;22.43;;
15905;SDS011;8051;50.820;4.884;2022-11-15T05:05:30;29.47;;;24.20;;
15905;SDS011;8051;50.820;4.884;2022-11-15T05:07:59;27.47;;;23.30;;
15905;SDS011;8051;50.820;4.884;2022-11-15T05:10:26;28.90;;;23.27;;
15905;SDS011;8051;50.820;4.884;2022-11-15T05:12:54;32.73;;;23.53;;
15905;SDS011;8051;50.820;4.884;2022-11-15T05:15:21;30.20;;;24.53;;
15905;SDS011;8051;50.820;4.884;2022-11-15T05:17:49;28.57;;;23.57;;
15905;SDS011;8051;50.820;4.884;2022-11-15T05:20:16;27.47;;;23.57;;
15905;SDS011;8051;50.820;4.884;2022-11-15T05:22:44;29.57;;;23.53;;
15905;SDS011;8051;50.820;4.884;2022-11-15T05:25:12;31.70;;;24.90;;
15905;SDS011;8051;50.820;4.884;2022-11-15T05:27:40;36.17;;;25.87;;
15905;SDS011;8051;50.820;4.884;2022-11-15T05:30:08;29.83;;;26.47;;
15905;SDS011;8051;50.820;4.884;2022-11-15T05:32:36;30.77;;;26.07;;
15905;SDS011;8051;50.820;4.884;2022-11-15T05:35:03;28.40;;;25.13;;
15905;SDS011;8051;50.820;4.884;2022-11-15T05:37:33;29.03;;;25.03;;
15905;SDS011;8051;50.820;4.884;2022-11-15T05:40:01;33.20;;;26.07;;
15905;SDS011;8051;50.820;4.884;2022-11-15T05:42:30;30.30;;;25.80;;
15905;SDS011;8051;50.820;4.884;2022-11-15T05:44:57;34.20;;;25.03;;
15905;SDS011;8051;50.820;4.884;2022-11-15T05:47:27;33.33;;;26.10;;
15905;SDS011;8051;50.820;4.884;2022-11-15T05:49:57;29.93;;;25.93;;
15905;SDS011;8051;50.820;4.884;2022-11-15T05:52:25;29.80;;;24.70;;
15905;SDS011;8051;50.820;4.884;2022-11-15T05:54:57;32.27;;;25.27;;
15905;SDS011;8051;50.820;4.884;2022-11-15T05:57:25;30.03;;;24.27;;
15905;SDS011;8051;50.820;4.884;2022-11-15T05:59:54;34.43;;;24.53;;
15905;SDS011;8051;50.820;4.884;2022-11-15T06:02:21;33.70;;;23.43;;
15905;SDS011;8051;50.820;4.884;2022-11-15T06:04:49;28.33;;;23.33;;
15905;SDS011;8051;50.820;4.884;2022-11-15T06:07:16;31.77;;;25.50;;
15905;SDS011;8051;50.820;4.884;2022-11-15T06:09:43;26.47;;;23.57;;
15905;SDS011;8051;50.820;4.884;2022-11-15T06:12:11;27.10;;;23.67;;
15905;SDS011;8051;50.820;4.884;2022-11-15T06:14:38;28.37;;;23.73;;
15905;SDS011;8051;50.820;4.884;2022-11-15T06:17:07;28.57;;;23.73;;
15905;SDS011;8051;50.820;4.884;2022-11-15T06:19:35;29.20;;;24.63;;
15905;SDS011;8051;50.820;4.884;2022-11-15T06:22:02;28.50;;;25.10;;
15905;SDS011;8051;50.820;4.884;2022-11-15T06:24:29;30.77;;;24.47;;
15905;SDS011;8051;50.820;4.884;2022-11-15T06:26:57;28.43;;;23.97;;
15905;SDS011;8051;50.820;4.884;2022-11-15T06:29:24;31.03;;;23.93;;
15905;SDS011;8051;50.820;4.884;2022-11-15T06:31:52;29.70;;;24.17;;
15905;SDS011;8051;50.820;4.884;2022-11-15T06:34:21;33.03;;;25.40;;
15905;SDS011;8051;50.820;4.884;2022-11-15T06:36:48;31.60;;;24.40;;
15905;SDS011;8051;50.820;4.884;2022-11-15T06:39:15;31.87;;;24.63;;
15905;SDS011;8051;50.820;4.884;2022-11-15T06:41:43;32.43;;;25.13;;
15905;SDS011;8051;50.820;4.884;2022-11-15T06:44:10;32.97;;;26.50;;
15905;SDS011;8051;50.820;4.884;2022-11-15T06:46:37;28.47;;;24.10;;
15905;SDS011;8051;50.820;4.884;2022-11-15T06:49:05;29.73;;;23.47;;
15905;SDS011;8051;50.820;4.884;2022-11-15T06:51:33;39.87;;;25.27;;
15905;SDS011;8051;50.820;4.884;2022-11-15T06:54:01;31.97;;;24.70;;
15905;SDS011;8051;50.820;4.884;2022-11-15T06:56:29;39.40;;;25.97;;
15905;SDS011;8051;50.820;4.884;2022-11-15T06:58:56;37.73;;;26.87;;
15905;SDS011;8051;50.820;4.884;2022-11-15T07:01:23;33.53;;;26.67;;
15905;SDS011;8051;50.820;4.884;2022-11-15T07:03:51;45.70;;;26.87;;
15905;SDS011;8051;50.820;4.884;2022-11-15T07:06:18;48.47;;;26.93;;
15905;SDS011;8051;50.820;4.884;2022-11-15T07:08:47;41.57;;;26.93;;
15905;SDS011;8051;50.820;4.884;2022-11-15T07:11:15;36.33;;;26.43;;
15905;SDS011;8051;50.820;4.884;2022-11-15T07:13:42;34.93;;;25.57;;
15905;SDS011;8051;50.820;4.884;2022-11-15T07:16:10;39.63;;;25.87;;
15905;SDS011;8051;50.820;4.884;2022-11-15T07:18:38;36.90;;;24.53;;
15905;SDS011;8051;50.820;4.884;2022-11-15T07:21:08;33.53;;;24.17;;
15905;SDS011;8051;50.820;4.884;2022-11-15T07:23:37;35.93;;;23.93;;
15905;SDS011;8051;50.820;4.884;2022-11-15T07:26:07;31.93;;;23.50;;
15905;SDS011;8051;50.820;4.884;2022-11-15T07:28:35;33.23;;;22.77;;
15905;SDS011;8051;50.820;4.884;2022-11-15T07:31:02;28.77;;;20.77;;
15905;SDS011;8051;50.820;4.884;2022-11-15T07:33:30;32.97;;;22.17;;
15905;SDS011;8051;50.820;4.884;2022-11-15T07:35:58;34.43;;;21.03;;
15905;SDS011;8051;50.820;4.884;2022-11-15T07:38:27;27.23;;;20.07;;
15905;SDS011;8051;50.820;4.884;2022-11-15T07:40:55;28.73;;;19.87;;
15905;SDS011;8051;50.820;4.884;2022-11-15T07:43:26;27.10;;;20.90;;
15905;SDS011;8051;50.820;4.884;2022-11-15T07:45:55;23.53;;;18.53;;
15905;SDS011;8051;50.820;4.884;2022-11-15T07:48:22;22.80;;;19.90;;
15905;SDS011;8051;50.820;4.884;2022-11-15T07:50:50;30.30;;;20.93;;
15905;SDS011;8051;50.820;4.884;2022-11-15T07:53:17;22.50;;;19.30;;
15905;SDS011;8051;50.820;4.884;2022-11-15T07:55:45;25.60;;;19.37;;
15905;SDS011;8051;50.820;4.884;2022-11-15T07:58:12;22.77;;;17.63;;
15905;SDS011;8051;50.820;4.884;2022-11-15T08:00:41;22.67;;;18.73;;
15905;SDS011;8051;50.820;4.884;2022-11-15T08:03:09;20.47;;;16.83;;
15905;SDS011;8051;50.820;4.884;2022-11-15T08:05:38;19.57;;;16.73;;
15905;SDS011;8051;50.820;4.884;2022-11-15T08:08:06;16.13;;;14.63;;
15905;SDS011;8051;50.820;4.884;2022-11-15T08:10:34;24.20;;;14.20;;
15905;SDS011;8051;50.820;4.884;2022-11-15T08:13:03;16.80;;;15.10;;
15905;SDS011;8051;50.820;4.884;2022-11-15T08:15:32;13.83;;;12.27;;
15905;SDS011;8051;50.820;4.884;2022-11-15T08:18:03;12.73;;;10.90;;
15905;SDS011;8051;50.820;4.884;2022-11-15T08:20:31;11.23;;;9.97;;
15905;SDS011;8051;50.820;4.884;2022-11-15T08:23:00;11.93;;;10.93;;
15905;SDS011;8051;50.820;4.884;2022-11-15T08:25:30;14.97;;;10.63;;
15905;SDS011;8051;50.820;4.884;2022-11-15T08:28:00;10.57;;;8.37;;
15905;SDS011;8051;50.820;4.884;2022-11-15T08:30:29;13.97;;;8.63;;
15905;SDS011;8051;50.820;4.884;2022-11-15T08:33:02;9.27;;;8.37;;
15905;SDS011;8051;50.820;4.884;2022-11-15T08:35:30;9.73;;;8.83;;
15905;SDS011;8051;50.820;4.884;2022-11-15T08:37:58;11.10;;;7.90;;
15905;SDS011;8051;50.820;4.884;2022-11-15T08:40:25;8.97;;;8.10;;
15905;SDS011;8051;50.820;4.884;2022-11-15T08:42:52;9.63;;;8.93;;
15905;SDS011;8051;50.820;4.884;2022-11-15T08:45:20;9.07;;;8.20;;
15905;SDS011;8051;50.820;4.884;2022-11-15T08:47:47;9.00;;;8.40;;
15905;SDS011;8051;50.820;4.884;2022-11-15T08:50:16;8.03;;;7.43;;
15905;SDS011;8051;50.820;4.884;2022-11-15T08:52:44;8.60;;;8.00;;
15905;SDS011;8051;50.820;4.884;2022-11-15T08:55:13;9.17;;;8.57;;
15905;SDS011;8051;50.820;4.884;2022-11-15T08:57:40;9.23;;;7.93;;
15905;SDS011;8051;50.820;4.884;2022-11-15T09:00:08;11.03;;;7.50;;
15905;SDS011;8051;50.820;4.884;2022-11-15T09:02:38;8.27;;;7.53;;
15905;SDS011;8051;50.820;4.884;2022-11-15T09:05:06;10.83;;;8.57;;
15905;SDS011;8051;50.820;4.884;2022-11-15T09:07:36;9.47;;;8.40;;
15905;SDS011;8051;50.820;4.884;2022-11-15T09:10:04;9.07;;;8.47;;
15905;SDS011;8051;50.820;4.884;2022-11-15T09:12:32;11.30;;;10.23;;
15905;SDS011;8051;50.820;4.884;2022-11-15T09:15:00;10.97;;;10.07;;
15905;SDS011;8051;50.820;4.884;2022-11-15T09:17:28;10.97;;;10.23;;
15905;SDS011;8051;50.820;4.884;2022-11-15T09:19:55;10.27;;;9.50;;
15905;SDS011;8051;50.820;4.884;2022-11-15T09:22:22;10.50;;;9.60;;
15905;SDS011;8051;50.820;4.884;2022-11-15T09:24:51;11.17;;;9.90;;
15905;SDS011;8051;50.820;4.884;2022-11-15T09:27:19;9.70;;;9.00;;
15905;SDS011;8051;50.820;4.884;2022-11-15T09:29:46;11.20;;;9.70;;
15905;SDS011;8051;50.820;4.884;2022-11-15T09:32:14;10.00;;;9.20;;
15905;SDS011;8051;50.820;4.884;2022-11-15T09:34:41;10.57;;;9.80;;
15905;SDS011;8051;50.820;4.884;2022-11-15T09:37:08;10.07;;;9.40;;
15905;SDS011;8051;50.820;4.884;2022-11-15T09:39:36;10.60;;;9.90;;
15905;SDS011;8051;50.820;4.884;2022-11-15T09:42:08;10.13;;;9.43;;
15905;SDS011;8051;50.820;4.884;2022-11-15T09:44:52;11.17;;;10.07;;
15905;SDS011;8051;50.820;4.884;2022-11-15T09:50:28;11.20;;;10.10;;
15905;SDS011;8051;50.820;4.884;2022-11-15T09:53:02;10.13;;;9.23;;
15905;SDS011;8051;50.820;4.884;2022-11-15T09:55:33;11.07;;;10.30;;
15905;SDS011;8051;50.820;4.884;2022-11-15T09:58:10;10.77;;;9.97;;
15905;SDS011;8051;50.820;4.884;2022-11-15T10:00:49;10.37;;;9.60;;
15905;SDS011;8051;50.820;4.884;2022-11-15T10:03:22;10.83;;;9.93;;
15905;SDS011;8051;50.820;4.884;2022-11-15T10:05:54;10.93;;;10.23;;
15905;SDS011;8051;50.820;4.884;2022-11-15T10:08:30;9.30;;;8.63;;
15905;SDS011;8051;50.820;4.884;2022-11-15T10:11:04;10.80;;;9.70;;
15905;SDS011;8051;50.820;4.884;2022-11-15T10:13:36;9.80;;;8.93;;
15905;SDS011;8051;50.820;4.884;2022-11-15T10:16:12;11.43;;;10.27;;
15905;SDS011;8051;50.820;4.884;2022-11-15T10:18:51;13.40;;;9.80;;
15905;SDS011;8051;50.820;4.884;2022-11-15T10:21:23;11.20;;;10.00;;
15905;SDS011;8051;50.820;4.884;2022-11-15T10:23:54;9.50;;;8.70;;
15905;SDS011;8051;50.820;4.884;2022-11-15T10:26:21;11.50;;;10.67;;
15905;SDS011;8051;50.820;4.884;2022-11-15T10:28:52;11.23;;;10.43;;
15905;SDS011;8051;50.820;4.884;2022-11-15T10:31:23;10.77;;;9.70;;
15905;SDS011;8051;50.820;4.884;2022-11-15T10:33:56;12.70;;;11.70;;
15905;SDS011;8051;50.820;4.884;2022-11-15T10:36:43;11.97;;;11.00;;
15905;SDS011;8051;50.820;4.884;2022-11-15T10:39:12;11.33;;;10.53;;
15905;SDS011;8051;50.820;4.884;2022-11-15T10:41:41;11.43;;;10.70;;
15905;SDS011;8051;50.820;4.884;2022-11-15T10:44:20;11.70;;;10.80;;
15905;SDS011;8051;50.820;4.884;2022-11-15T10:47:05;12.30;;;11.17;;
15905;SDS011;8051;50.820;4.884;2022-11-15T10:49:55;10.97;;;10.20;;
15905;SDS011;8051;50.820;4.884;2022-11-15T10:52:24;11.80;;;11.00;;
15905;SDS011;8051;50.820;4.884;2022-11-15T10:54:52;12.50;;;11.60;;
15905;SDS011;8051;50.820;4.884;2022-11-15T10:57:23;13.43;;;12.53;;
15905;SDS011;8051;50.820;4.884;2022-11-15T10:59:55;13.23;;;12.40;;
15905;SDS011;8051;50.820;4.884;2022-11-15T11:02:29;11.97;;;11.17;;
15905;SDS011;8051;50.820;4.884;2022-11-15T11:05:00;13.87;;;12.53;;
15905;SDS011;8051;50.820;4.884;2022-11-15T11:07:30;12.70;;;11.70;;
15905;SDS011;8051;50.820;4.884;2022-11-15T11:10:00;12.50;;;11.50;;
15905;SDS011;8051;50.820;4.884;2022-11-15T11:12:32;13.70;;;12.47;;
15905;SDS011;8051;50.820;4.884;2022-11-15T11:15:08;12.60;;;11.73;;
15905;SDS011;8051;50.820;4.884;2022-11-15T11:17:43;13.40;;;12.30;;
15905;SDS011;8051;50.820;4.884;2022-11-15T11:20:41;14.60;;;13.27;;
15905;SDS011;8051;50.820;4.884;2022-11-15T11:23:17;14.17;;;12.83;;
15905;SDS011;8051;50.820;4.884;2022-11-15T11:25:53;12.50;;;11.70;;
15905;SDS011;8051;50.820;4.884;2022-11-15T11:28:33;13.43;;;12.53;;
15905;SDS011;8051;50.820;4.884;2022-11-15T11:31:13;14.53;;;13.40;;
15905;SDS011;8051;50.820;4.884;2022-11-15T11:33:48;13.43;;;12.37;;
15905;SDS011;8051;50.820;4.884;2022-11-15T11:36:24;14.23;;;13.13;;
15905;SDS011;8051;50.820;4.884;2022-11-15T11:39:00;14.03;;;13.23;;
15905;SDS011;8051;50.820;4.884;2022-11-15T11:41:46;12.67;;;11.77;;
15905;SDS011;8051;50.820;4.884;2022-11-15T11:44:34;12.30;;;11.60;;
15905;SDS011;8051;50.820;4.884;2022-11-15T11:47:12;13.33;;;12.10;;
15905;SDS011;8051;50.820;4.884;2022-11-15T11:49:46;12.83;;;12.03;;
15905;SDS011;8051;50.820;4.884;2022-11-15T11:52:18;12.80;;;11.90;;
15905;SDS011;8051;50.820;4.884;2022-11-15T11:54:54;13.60;;;12.37;;
15905;SDS011;8051;50.820;4.884;2022-11-15T11:57:31;12.90;;;11.60;;
15905;SDS011;8051;50.820;4.884;2022-11-15T12:00:04;12.50;;;11.63;;
15905;SDS011;8051;50.820;4.884;2022-11-15T12:02:43;12.63;;;11.60;;
15905;SDS011;8051;50.820;4.884;2022-11-15T12:05:16;12.87;;;11.90;;
15905;SDS011;8051;50.820;4.884;2022-11-15T12:07:49;13.27;;;12.37;;
15905;SDS011;8051;50.820;4.884;2022-11-15T12:10:21;13.70;;;12.40;;
15905;SDS011;8051;50.820;4.884;2022-11-15T12:12:54;12.70;;;11.93;;
15905;SDS011;8051;50.820;4.884;2022-11-15T12:15:26;11.80;;;10.77;;
15905;SDS011;8051;50.820;4.884;2022-11-15T12:17:58;12.20;;;11.30;;
15905;SDS011;8051;50.820;4.884;2022-11-15T12:20:29;12.80;;;11.73;;
15905;SDS011;8051;50.820;4.884;2022-11-15T12:23:01;11.77;;;10.17;;
15905;SDS011;8051;50.820;4.884;2022-11-15T12:25:32;11.57;;;10.87;;
15905;SDS011;8051;50.820;4.884;2022-11-15T12:28:07;11.20;;;10.47;;
15905;SDS011;8051;50.820;4.884;2022-11-15T12:30:43;11.20;;;10.60;;
15905;SDS011;8051;50.820;4.884;2022-11-15T12:33:31;11.90;;;11.17;;
15905;SDS011;8051;50.820;4.884;2022-11-15T12:36:03;11.63;;;11.00;;
15905;SDS011;8051;50.820;4.884;2022-11-15T12:41:20;12.10;;;10.87;;
15905;SDS011;8051;50.820;4.884;2022-11-15T12:43:49;11.33;;;10.67;;
15905;SDS011;8051;50.820;4.884;2022-11-15T12:46:21;10.93;;;10.33;;
15905;SDS011;8051;50.820;4.884;2022-11-15T12:49:23;11.57;;;10.83;;
15905;SDS011;8051;50.820;4.884;2022-11-15T12:52:12;11.87;;;10.93;;
15905;SDS011;8051;50.820;4.884;2022-11-15T12:54:50;12.83;;;11.93;;
15905;SDS011;8051;50.820;4.884;2022-11-15T12:57:27;11.90;;;11.27;;
15905;SDS011;8051;50.820;4.884;2022-11-15T13:00:21;12.30;;;11.40;;
15905;SDS011;8051;50.820;4.884;2022-11-15T13:03:21;11.30;;;10.60;;
15905;SDS011;8051;50.820;4.884;2022-11-15T13:05:59;12.10;;;11.40;;
15905;SDS011;8051;50.820;4.884;2022-11-15T13:08:57;12.27;;;11.23;;
15905;SDS011;8051;50.820;4.884;2022-11-15T13:11:44;11.73;;;10.87;;
15905;SDS011;8051;50.820;4.884;2022-11-15T13:14:40;12.73;;;11.70;;
15905;SDS011;8051;50.820;4.884;2022-11-15T13:17:17;11.57;;;10.60;;
15905;SDS011;8051;50.820;4.884;2022-11-15T13:19:53;11.67;;;10.70;;
15905;SDS011;8051;50.820;4.884;2022-11-15T13:22:27;12.17;;;11.27;;
15905;SDS011;8051;50.820;4.884;2022-11-15T13:28:19;12.77;;;12.07;;
15905;SDS011;8051;50.820;4.884;2022-11-15T13:30:49;12.73;;;11.97;;
15905;SDS011;8051;50.820;4.884;2022-11-15T13:33:20;12.30;;;11.50;;
15905;SDS011;8051;50.820;4.884;2022-11-15T13:35:50;13.40;;;12.50;;
15905;SDS011;8051;50.820;4.884;2022-11-15T13:38:30;12.77;;;11.77;;
15905;SDS011;8051;50.820;4.884;2022-11-15T13:40:59;11.87;;;11.27;;
15905;SDS011;8051;50.820;4.884;2022-11-15T13:43:43;11.17;;;10.47;;
15905;SDS011;8051;50.820;4.884;2022-11-15T13:46:11;12.10;;;11.30;;
15905;SDS011;8051;50.820;4.884;2022-11-15T13:48:41;13.13;;;12.23;;
15905;SDS011;8051;50.820;4.884;2022-11-15T13:51:12;13.33;;;12.40;;
15905;SDS011;8051;50.820;4.884;2022-11-15T13:53:47;12.17;;;11.07;;
15905;SDS011;8051;50.820;4.884;2022-11-15T13:56:18;11.10;;;10.57;;
15905;SDS011;8051;50.820;4.884;2022-11-15T13:58:47;11.63;;;10.93;;
15905;SDS011;8051;50.820;4.884;2022-11-15T14:01:16;12.03;;;11.37;;
15905;SDS011;8051;50.820;4.884;2022-11-15T14:06:31;13.00;;;11.87;;
15905;SDS011;8051;50.820;4.884;2022-11-15T14:09:28;12.77;;;12.10;;
15905;SDS011;8051;50.820;4.884;2022-11-15T14:11:59;10.63;;;9.70;;
15905;SDS011;8051;50.820;4.884;2022-11-15T14:14:28;13.50;;;12.60;;
15905;SDS011;8051;50.820;4.884;2022-11-15T14:16:57;13.93;;;13.17;;
15905;SDS011;8051;50.820;4.884;2022-11-15T14:19:36;13.53;;;12.83;;
15905;SDS011;8051;50.820;4.884;2022-11-15T14:22:12;13.43;;;12.50;;
15905;SDS011;8051;50.820;4.884;2022-11-15T14:24:43;12.47;;;11.87;;
15905;SDS011;8051;50.820;4.884;2022-11-15T14:27:16;13.60;;;12.80;;
15905;SDS011;8051;50.820;4.884;2022-11-15T14:29:46;12.30;;;11.40;;
15905;SDS011;8051;50.820;4.884;2022-11-15T14:32:14;12.47;;;11.67;;
15905;SDS011;8051;50.820;4.884;2022-11-15T14:34:43;11.23;;;10.67;;
15905;SDS011;8051;50.820;4.884;2022-11-15T14:37:16;12.37;;;11.77;;
15905;SDS011;8051;50.820;4.884;2022-11-15T14:39:49;12.87;;;11.97;;
15905;SDS011;8051;50.820;4.884;2022-11-15T14:42:17;12.70;;;11.90;;
15905;SDS011;8051;50.820;4.884;2022-11-15T14:44:46;12.03;;;11.37;;
15905;SDS011;8051;50.820;4.884;2022-11-15T14:47:13;11.03;;;10.43;;
15905;SDS011;8051;50.820;4.884;2022-11-15T14:49:41;12.60;;;12.00;;
15905;SDS011;8051;50.820;4.884;2022-11-15T14:55:03;12.97;;;12.07;;
15905;SDS011;8051;50.820;4.884;2022-11-15T14:57:40;13.63;;;12.80;;
15905;SDS011;8051;50.820;4.884;2022-11-15T15:00:08;12.43;;;11.77;;
15905;SDS011;8051;50.820;4.884;2022-11-15T15:02:36;13.17;;;12.10;;
15905;SDS011;8051;50.820;4.884;2022-11-15T15:05:10;13.60;;;12.67;;
15905;SDS011;8051;50.820;4.884;2022-11-15T15:07:41;13.73;;;12.83;;
15905;SDS011;8051;50.820;4.884;2022-11-15T15:10:11;11.57;;;10.77;;
15905;SDS011;8051;50.820;4.884;2022-11-15T15:12:39;8.57;;;8.00;;
15905;SDS011;8051;50.820;4.884;2022-11-15T15:15:11;9.90;;;8.97;;
15905;SDS011;8051;50.820;4.884;2022-11-15T15:17:40;10.47;;;9.77;;
15905;SDS011;8051;50.820;4.884;2022-11-15T15:20:08;10.23;;;9.63;;